Tiempo atmosférico en la estación meteorológica de Jabaloyas, Teruel (1430 m.)



Fecha
DESCASC
Temp. máxima en grados centígrados (hora)
DESCASC
Temp. mínima en grados centígrados (hora)
DESCASC
Temp. media en grados centígrados
DESCASC
Racha de viento máxima en m/sg (hora)
DESCASC
Velocidad máxima media en intervalos de 10 minutos(hora)
DESCASC
Precipitaciones diarias en mm
DESCASC
Precipitaciones de 00:00 a 06:00 en mm
DESCASC
Precipitaciones de 06:00 a 12:00 en mm
DESCASC
Precipitaciones de 12:00 a 18:00 en mm
DESCASC
Precipitaciones de 18:00 a 24:00 en mm
DESCASC
16-01-2020 10 (13:50) 1.8 (05:30) 5.9 9.17 (21:20) 4.72 (01:00) 0 0 0 0 0
15-01-2020 8.3 (14:10) -1.3 (01:20) 3.5 15.56 (12:00) 9.17 (15:30) 0 0 0 0 0
14-01-2020 11.3 (14:10) -0.4 (05:20) 5.5 8.06 (19:00) 6.67 (19:10) 0 0 0 0 0
13-01-2020 10.7 (15:00) 1.1 (05:00) 5.9 9.44 (17:00) 6.11 (17:00) 0 0 0 0 0
12-01-2020 9.6 (14:00) 0.1 (04:10) 4.9 7.78 (11:00) 5.83 (10:50) 0 0 0 0 0
11-01-2020 7.4 (14:50) -1.8 (-00:0) 2.8 8.33 (01:30) 5.83 (01:40) 0 0 0 0 0
10-01-2020 4.9 (00:00) -0.3 (00:00) 2.3 14.44 (10:50) 8.61 (10:10) 0 0 0 0 0
09-01-2020 11.1 (15:00) 2.2 (00:00) 6.7 11.39 (23:59) 6.39 (23:59) 0 0 0 0 0
08-01-2020 10.7 (14:40) 2.5 (00:00) 6.6 9.72 (02:00) 6.67 (02:10) 0 0 0 0 0
07-01-2020 13.2 (14:30) 4.6 (00:00) 8.9 8.33 (15:10) 6.11 (15:40) 0 0 0 0 0
06-01-2020 13.8 (14:50) 4.7 (00:00) 9.3 6.39 (21:20) 4.72 (21:30) 0 0 0 0 0
05-01-2020 13.2 (14:00) 1.9 (00:00) 7.5 7.5 (20:00) 6.11 (20:00) 0 0 0 0 0
04-01-2020 4.4 (14:30) -0.2 (00:00) 2.1 11.11 (01:40) 7.22 (01:40) 0 0 0 0 0
03-01-2020 10.8 (14:00) 2.5 (00:00) 6.7 8.89 (23:50) 6.11 (23:50) 0 0 0 0 0
02-01-2020 15.2 (14:20) 5.9 (00:00) 10.5 4.44 (16:10) 3.06 (01:50) 0 0 0 0 0
01-01-2020 14.6 (14:00) 6 (00:00) 10.3 6.39 (01:00) 3.89 (07:40) 0 0 0 0 0
31-12-2019 -- (--) -- (--) -- -- (--) -- (--) -- 0 0 0 --
30-12-2019 -- (--) -- (--) -- -- (--) -- (--) -- 0 0 0 --
29-12-2019 13 (14:40) 5.8 (00:00) 9.4 6.67 (23:20) 5.28 (23:20) 0 0 0 0 0
28-12-2019 14.3 (12:00) 6.4 (00:00) 10.4 7.22 (08:20) 5 (06:10) 0 0 0 0 0
27-12-2019 15.8 (14:20) 6.6 (00:00) 11.2 5.28 (21:00) 3.89 (23:10) 0 0 0 0 0
26-12-2019 12.3 (15:00) 4.6 (00:00) 8.5 9.17 (03:50) 6.11 (05:20) 0 0 0 0 0
25-12-2019 17.4 (14:10) 9.1 (00:00) 13.3 8.89 (15:20) 5.28 (20:20) 0 0 0 0 0
24-12-2019 14.8 (14:30) 4.7 (05:30) 9.8 8.33 (02:40) 4.44 (23:10) 0 0 0 0 0
23-12-2019 10.7 (15:20) 2.3 (00:00) 6.5 16.67 (06:40) 11.94 (07:40) 0 0 0 0 0
22-12-2019 7.5 (16:40) 4.6 (03:20) 6 27.5 (06:50) 16.67 (18:50) 1.4 1.4 0 0 0
21-12-2019 11.4 (12:40) 5.4 (22:50) 8.4 27.5 (20:00) 12.78 (23:40) 9 1.4 4.8 2 0.8
20-12-2019 9.5 (21:50) 6.8 (00:00) 8.2 29.72 (10:20) 13.61 (10:30) 61.6 22.4 16 4.8 18.4
19-12-2019 8.2 (20:00) 1.3 (03:50) 4.7 24.72 (23:00) 10.28 (23:30) 7 0 0 0.6 6.4

Gráficas

Temp. máximas Temp. mínimas Temp. medias Precipitaciones Rachas de viento máximas Velocidades máximas media en intervalos de 10 minutos

Datos horarios

Fecha y hora oficial Temperatura (ºC) Velocidad del viento (km/h) Dirección del viento Racha (km/h) Dirección de racha Precipitación (mm) Presión (hPa) Tendencia (hPa) Humedad (%)
2020-01-17 23:00:00 0.5 8 Oeste 23 Noroeste 0 -- -- 84
2020-01-17 22:00:00 0.4 9 Noroeste 18 Noroeste 0 -- -- 84
2020-01-17 21:00:00 1.8 16 Noroeste 29 Noroeste 0 -- -- 79
2020-01-17 20:00:00 2.1 14 Noroeste 25 Noroeste 0 -- -- 77
2020-01-17 19:00:00 2.6 11 Noroeste 33 Noroeste 0 -- -- 73
2020-01-17 18:00:00 4 14 Noroeste 40 Oeste 0 -- -- 67
2020-01-17 17:00:00 5 29 Oeste 49 Noroeste 0 -- -- 66
2020-01-17 16:00:00 5.4 26 Noroeste 47 Oeste 0 -- -- 66
2020-01-17 15:00:00 5.7 30 Oeste 44 Oeste 0 -- -- 67
2020-01-17 14:00:00 5.4 24 Noroeste 45 Oeste 0 -- -- 70
2020-01-17 13:00:00 5.4 18 Noroeste 36 Oeste 0 -- -- 72
2020-01-17 12:00:00 4.2 21 Oeste 39 Oeste 0 -- -- 75
2020-01-17 11:00:00 4.8 16 Oeste 29 Oeste 0 -- -- 71
2020-01-17 10:00:00 3.4 13 Oeste 22 Oeste 0 -- -- 76
2020-01-17 09:00:00 2.5 16 Oeste 30 Oeste 0 -- -- 79
2020-01-17 08:00:00 2.6 12 Oeste 34 Oeste 0 -- -- 76
2020-01-17 07:00:00 2.9 16 Oeste 39 Oeste 0 -- -- 74
2020-01-17 06:00:00 3.9 15 Oeste 50 Oeste 0 -- -- 73
2020-01-17 05:00:00 4.1 11 Oeste 41 Oeste 0 -- -- 66
2020-01-17 04:00:00 4.3 16 Oeste 48 Oeste 0 -- -- 59
2020-01-17 03:00:00 4.5 12 Oeste 40 Sudoeste 0 -- -- 61
2020-01-17 02:00:00 5.3 13 Este 46 Sudoeste 0 -- -- 58
2020-01-17 01:00:00 5.1 8 Noroeste 26 Norte 0 -- -- 62
2020-01-17 00:00:00 5.8 9 Sudoeste 24 Oeste 0 -- -- 59
2020-01-16 23:00:00 5.3 11 Sudoeste 29 Oeste 0 -- -- 58
2020-01-16 22:00:00 3.3 5 Sudeste 33 Sur 0 -- -- 72
2020-01-16 21:00:00 5 6 Sudeste 26 Sudeste 0 -- -- 64
2020-01-16 20:00:00 5.4 6 Sudeste 33 Sur 0 -- -- 73
2020-01-16 19:00:00 5.9 15 Sudeste 32 Sur 0 -- -- 74
2020-01-16 18:00:00 6.8 3 Sur 17 Sudoeste 0 -- -- 70
2020-01-16 17:00:00 8.1 6 Sur 24 Sudoeste 0 -- -- 65
2020-01-16 16:00:00 8.6 13 Sudoeste 23 Sudoeste 0 -- -- 61
2020-01-16 15:00:00 8.3 10 Sudoeste 22 Sudoeste 0 -- -- 66
2020-01-16 14:00:00 9.9 15 Sur 29 Sur 0 -- -- 59
2020-01-16 13:00:00 9.7 15 Sudeste 27 Sur 0 -- -- 63
2020-01-16 12:00:00 8.6 4 Este 19 Sudoeste 0 -- -- 68
2020-01-16 11:00:00 7.3 8 Sur 19 Sudoeste 0 -- -- 71
2020-01-16 10:00:00 6 7 Sudoeste 24 Sudoeste 0 -- -- 78
2020-01-16 09:00:00 3.7 15 Sudoeste 26 Sudoeste 0 -- -- 85
2020-01-16 08:00:00 3.2 4 Sur 11 Sudoeste 0 -- -- 86
2020-01-16 07:00:00 2.6 2 Sur 9 Sur 0 -- -- 91
2020-01-16 06:00:00 1.9 2 Sudeste 10 Oeste 0 -- -- 91
2020-01-16 05:00:00 2.8 5 Oeste 9 Oeste 0 -- -- 89
2020-01-16 04:00:00 3.2 3 Oeste 8 Oeste 0 -- -- 86
2020-01-16 03:00:00 3.7 3 Oeste 15 Oeste 0 -- -- 86
2020-01-16 02:00:00 4.9 7 Oeste 21 Oeste 0 -- -- 84
2020-01-16 01:00:00 4.7 17 Oeste 31 Oeste 0 -- -- 84
2020-01-16 00:00:00 4.2 5 Oeste 15 Oeste 0 -- -- 86
2020-01-15 23:00:00 4.9 12 Oeste 22 Sudoeste 0 -- -- 85
2020-01-15 22:00:00 4.8 3 Oeste 16 Noroeste 0 -- -- 87
2020-01-15 21:00:00 4.7 4 Noroeste 6 Oeste 0 -- -- 86
2020-01-15 20:00:00 4.5 3 Sudeste 18 Oeste 0 -- -- 83
2020-01-15 19:00:00 4.5 5 Noroeste 27 Oeste 0 -- -- 83
2020-01-15 18:00:00 4.3 0 Calma 25 Oeste 0 -- -- 79
2020-01-15 17:00:00 5.9 12 Oeste 27 Oeste 0 -- -- 74
2020-01-15 16:00:00 6.9 25 Oeste 51 Oeste 0 -- -- 70
2020-01-15 15:00:00 7.3 28 Oeste 48 Oeste 0 -- -- 67
2020-01-15 14:00:00 8.1 32 Oeste 53 Oeste 0 -- -- 58
2020-01-15 13:00:00 7.2 30 Oeste 52 Oeste 0 -- -- 52
2020-01-15 12:00:00 5.9 30 Oeste 56 Oeste 0 -- -- 52
2020-01-15 11:00:00 5.3 10 Oeste 40 Oeste 0 -- -- 56
2020-01-15 10:00:00 3.9 14 Oeste 30 Oeste 0 -- -- 64
2020-01-15 09:00:00 1 2 Noroeste 16 Noroeste 0 -- -- 83
2020-01-15 08:00:00 0.9 0 Calma 6 Sudoeste 0 -- -- 84
2020-01-15 07:00:00 1.9 0 Calma 6 Oeste 0 -- -- 82
2020-01-15 06:00:00 2 3 Noroeste 15 Noroeste 0 -- -- 82
2020-01-15 05:00:00 1.4 5 Noroeste 15 Noroeste 0 -- -- 84
2020-01-15 04:00:00 1.4 8 Noroeste 17 Noroeste 0 -- -- 86
2020-01-15 03:00:00 0.3 9 Noroeste 17 Noroeste 0 -- -- 89
2020-01-15 02:00:00 -0.9 10 Noroeste 15 Oeste 0 -- -- 86
2020-01-15 01:00:00 -0.8 11 Noroeste 23 Oeste 0 -- -- 82
2020-01-15 00:00:00 0.8 9 Oeste 21 Noroeste 0 -- -- 70
2020-01-14 23:00:00 1 10 Noroeste 18 Noroeste 0 -- -- 66
2020-01-14 22:00:00 2.8 5 Oeste 17 Oeste 0 -- -- 41
2020-01-14 21:00:00 3.6 6 Noroeste 20 Sudoeste 0 -- -- 46
2020-01-14 20:00:00 5.5 17 Sudoeste 27 Sudoeste 0 -- -- 42
2020-01-14 19:00:00 5.8 24 Sudoeste 29 Sudoeste 0 -- -- 45
2020-01-14 18:00:00 6.2 8 Sudoeste 14 Sudoeste 0 -- -- 44
2020-01-14 17:00:00 7.7 5 Sur 17 Sur 0 -- -- 42
2020-01-14 16:00:00 10.2 9 Sur 25 Sudeste 0 -- -- 35
2020-01-14 15:00:00 11.1 13 Sudeste 23 Sudeste 0 -- -- 30
2020-01-14 14:00:00 11 10 Sudeste 21 Sudeste 0 -- -- 26
2020-01-14 13:00:00 9.8 14 Sudeste 21 Sudeste 0 -- -- 23
2020-01-14 12:00:00 9.7 15 Este 21 Sudeste 0 -- -- 22
2020-01-14 11:00:00 8.8 11 Sudeste 21 Sudeste 0 -- -- 26
2020-01-14 10:00:00 7.9 6 Sudeste 10 Sudeste 0 -- -- 26
2020-01-14 09:00:00 5.4 10 Oeste 19 Oeste 0 -- -- 32
2020-01-14 08:00:00 4.1 4 Oeste 9 Oeste 0 -- -- 22
2020-01-14 07:00:00 3.3 8 Oeste 11 Oeste 0 -- -- 28
2020-01-14 06:00:00 0.2 3 Oeste 8 Sudoeste 0 -- -- 30
2020-01-14 05:00:00 0 2 Noroeste 5 Nordeste 0 -- -- 30
2020-01-14 04:00:00 0.5 0 Calma 14 Oeste 0 -- -- 28
2020-01-14 03:00:00 1.4 9 Oeste 14 Oeste 0 -- -- 22
2020-01-14 02:00:00 1.8 2 Sur 11 Este 0 -- -- 22
2020-01-14 01:00:00 1.2 5 Sudeste 26 Oeste 0 -- -- 22
2020-01-14 00:00:00 3.6 12 Oeste 22 Oeste 0 -- -- 17
2020-01-13 23:00:00 4.2 3 Noroeste 14 Oeste 0 -- -- 14
2020-01-13 22:00:00 3.8 3 Este 11 Este 0 -- -- 23
2020-01-13 21:00:00 4.3 5 Sudeste 13 Sudoeste 0 -- -- 20
2020-01-13 20:00:00 4.5 4 Sudeste 16 Este 0 -- -- 24
2020-01-13 19:00:00 5 5 Norte 20 Sudoeste 0 -- -- 27
2020-01-13 18:00:00 7 9 Sudoeste 31 Sudoeste 0 -- -- 21
2020-01-13 17:00:00 8.1 22 Sudoeste 34 Sudoeste 0 -- -- 20
2020-01-13 16:00:00 9.4 14 Sudoeste 21 Sudoeste 0 -- -- 25
2020-01-13 15:00:00 10.7 5 Sudoeste 19 Sur 0 -- -- 26
2020-01-13 14:00:00 9.9 9 Sudeste 13 Este 0 -- -- 28
2020-01-13 13:00:00 9.6 4 Sudeste 10 Sudeste 0 -- -- 28
2020-01-13 12:00:00 9.2 6 Sudeste 9 Este 0 -- -- 27
2020-01-13 11:00:00 7.8 6 Sudeste 9 Sudeste 0 -- -- 24
2020-01-13 10:00:00 6.6 5 Sudeste 9 Sudeste 0 -- -- 27
2020-01-13 09:00:00 3.7 0 Calma 10 Sudeste 0 -- -- 26
2020-01-13 08:00:00 1.9 3 Sudeste 6 Sudeste 0 -- -- 28
2020-01-13 07:00:00 2.4 0 Calma 24 Oeste 0 -- -- 26
2020-01-13 06:00:00 2.2 9 Oeste 15 Sudoeste 0 -- -- 30
2020-01-13 05:00:00 1.1 3 Sur 7 Sudeste 0 -- -- 38
2020-01-13 04:00:00 2 0 Calma 11 Oeste 0 -- -- 32
2020-01-13 03:00:00 3.4 3 Noroeste 17 Sudoeste 0 -- -- 33
2020-01-13 02:00:00 2.6 5 Oeste 15 Sudoeste 0 -- -- 39
2020-01-13 01:00:00 3.6 4 Oeste 16 Oeste 0 -- -- 36
2020-01-13 00:00:00 1.8 3 Sudeste 7 Oeste 0 -- -- 31
2020-01-12 23:00:00 2.1 4 Oeste 9 Oeste 0 -- -- 31
2020-01-12 22:00:00 1.5 3 Sur 7 Sudeste 0 -- -- 28
2020-01-12 21:00:00 2.4 4 Sudeste 9 Oeste 0 -- -- 24
2020-01-12 20:00:00 2.7 8 Oeste 13 Oeste 0 -- -- 25
2020-01-12 19:00:00 3.4 10 Oeste 15 Oeste 0 -- -- 23
2020-01-12 18:00:00 3.8 5 Oeste 11 Oeste 0 -- -- 22
2020-01-12 17:00:00 5.4 5 Noroeste 13 Norte 0 -- -- 25
2020-01-12 16:00:00 7.9 6 Norte 13 Nordeste 0 -- -- 25
2020-01-12 15:00:00 9.3 6 Nordeste 14 Nordeste 0 -- -- 25
2020-01-12 14:00:00 9.6 8 Nordeste 20 Nordeste 0 -- -- 20
2020-01-12 13:00:00 8.5 8 Noroeste 18 Noroeste 0 -- -- 22
2020-01-12 12:00:00 7.1 9 Norte 22 Noroeste 0 -- -- 24
2020-01-12 11:00:00 5 19 Noroeste 28 Noroeste 0 -- -- 24
2020-01-12 10:00:00 3.9 13 Noroeste 21 Oeste 0 -- -- 27
2020-01-12 09:00:00 1.7 12 Noroeste 21 Oeste 0 -- -- 31
2020-01-12 08:00:00 1.9 13 Oeste 19 Oeste 0 -- -- 29
2020-01-12 07:00:00 2.1 14 Oeste 20 Oeste 0 -- -- 27
2020-01-12 06:00:00 2.5 12 Oeste 17 Oeste 0 -- -- 26
2020-01-12 05:00:00 1.2 13 Oeste 17 Oeste 0 -- -- 32
2020-01-12 04:00:00 0.3 4 Oeste 8 Oeste 0 -- -- 37
2020-01-12 03:00:00 1.8 7 Oeste 19 Oeste 0 -- -- 34
2020-01-12 02:00:00 1.2 7 Oeste 14 Noroeste 0 -- -- 38
2020-01-12 01:00:00 1.7 10 Oeste 16 Oeste 0 -- -- 44
2020-01-12 00:00:00 1.9 14 Oeste 18 Oeste 0 -- -- 48
2020-01-11 23:00:00 1.9 13 Oeste 19 Oeste 0 -- -- 52
2020-01-11 22:00:00 1.4 4 Oeste 9 Oeste 0 -- -- 54
2020-01-11 21:00:00 2 3 Oeste 5 Oeste 0 -- -- 48
2020-01-11 20:00:00 2.1 0 Calma 6 Sudoeste 0 -- -- 46
2020-01-11 19:00:00 2.2 0 Calma 4 Sur 0 -- -- 57
2020-01-11 18:00:00 2 3 Sur 7 Sur 0 -- -- 59
2020-01-11 17:00:00 4 0 Calma 5 Sudoeste 0 -- -- 40
2020-01-11 16:00:00 7.1 0 Calma 8 Norte 0 -- -- 32
2020-01-11 15:00:00 7.4 3 Norte 11 Nordeste 0 -- -- 27
2020-01-11 14:00:00 6.6 3 Noroeste 10 Norte 0 -- -- 38
2020-01-11 13:00:00 5.8 6 Norte 9 Norte 0 -- -- 40
2020-01-11 12:00:00 4 4 Norte 9 Norte 0 -- -- 56
2020-01-11 11:00:00 2.5 8 Noroeste 15 Noroeste 0 -- -- 58
2020-01-11 10:00:00 0.9 10 Oeste 22 Oeste 0 -- -- 65
2020-01-11 09:00:00 -0.6 16 Oeste 24 Oeste 0 -- -- 74
2020-01-11 08:00:00 -1.6 17 Oeste 22 Oeste 0 -- -- 83
2020-01-11 07:00:00 -1.4 16 Oeste 23 Oeste 0 -- -- 84
2020-01-11 06:00:00 -1.7 15 Oeste 24 Noroeste 0 -- -- 90
2020-01-11 05:00:00 -1.7 16 Noroeste 23 Noroeste 0 -- -- 91
2020-01-11 04:00:00 -1 17 Oeste 26 Noroeste 0 -- -- 89
2020-01-11 03:00:00 -0.7 15 Noroeste 27 Noroeste 0 -- -- 88
2020-01-11 02:00:00 -0.4 19 Noroeste 30 Noroeste 0 -- -- 89
2020-01-11 01:00:00 -0.5 18 Noroeste 28 Noroeste 0 -- -- 90
2020-01-11 00:00:00 -0.3 14 Noroeste 29 Noroeste 0 -- -- 88
2020-01-10 23:00:00 0.2 17 Noroeste 32 Noroeste 0 -- -- 85
2020-01-10 22:00:00 0.5 21 Noroeste 39 Noroeste 0 -- -- 85
2020-01-10 21:00:00 0.7 12 Norte 37 Noroeste 0 -- -- 85
2020-01-10 20:00:00 1 17 Norte 39 Noroeste 0 -- -- 85
2020-01-10 19:00:00 1.2 19 Norte 45 Noroeste 0 -- -- 83
2020-01-10 18:00:00 1.4 21 Norte 36 Norte 0 -- -- 81
2020-01-10 17:00:00 1.8 22 Norte 41 Noroeste 0 -- -- 77
2020-01-10 16:00:00 2.1 22 Norte 44 Noroeste 0 -- -- 75
2020-01-10 15:00:00 2.2 26 Norte 43 Noroeste 0 -- -- 73
2020-01-10 14:00:00 1.8 22 Norte 44 Norte 0 -- -- 75
2020-01-10 13:00:00 2 24 Norte 46 Nordeste 0 -- -- 70
2020-01-10 12:00:00 2 27 Norte 46 Norte 0 -- -- 73
2020-01-10 11:00:00 1.4 22 Norte 52 Noroeste 0 -- -- 78
2020-01-10 10:00:00 1.1 26 Noroeste 42 Noroeste 0 -- -- 85
2020-01-10 09:00:00 0.2 20 Noroeste 37 Noroeste 0 -- -- 93
2020-01-10 08:00:00 0 20 Norte 31 Norte 0 -- -- 95
2020-01-10 07:00:00 0.9 19 Norte 40 Noroeste 0 -- -- 92
2020-01-10 06:00:00 1.7 24 Noroeste 40 Noroeste 0 -- -- 79
2020-01-10 05:00:00 3.3 17 Noroeste 27 Norte 0 -- -- 85
2020-01-10 04:00:00 3.8 15 Noroeste 32 Oeste 0 -- -- 83
2020-01-10 03:00:00 4 18 Noroeste 37 Oeste 0 -- -- 74
2020-01-10 02:00:00 4.2 26 Oeste 36 Oeste 0 -- -- 75
2020-01-10 01:00:00 4.5 25 Oeste 35 Oeste 0 -- -- 78
2020-01-10 00:00:00 4.9 23 Oeste 41 Oeste 0 -- -- 75
2020-01-09 23:00:00 4.6 13 Noroeste 25 Oeste 0 -- -- 74
2020-01-09 22:00:00 4.9 11 Noroeste 20 Noroeste 0 -- -- 71
2020-01-09 21:00:00 5.4 7 Oeste 12 Oeste 0 -- -- 67
2020-01-09 20:00:00 6.5 4 Sudeste 28 Sudoeste 0 -- -- 61
2020-01-09 19:00:00 7.2 17 Sudoeste 28 Sudoeste 0 -- -- 57
2020-01-09 18:00:00 8 21 Sudoeste 37 Sudoeste 0 -- -- 47
2020-01-09 17:00:00 8.7 12 Sur 22 Sur 0 -- -- 45
2020-01-09 16:00:00 10.6 8 Sur 17 Sudoeste 0 -- -- 42
2020-01-09 15:00:00 11.1 5 Sudoeste 16 Oeste 0 -- -- 44
2020-01-09 14:00:00 10.5 5 Oeste 24 Sudeste 0 -- -- 40
2020-01-09 13:00:00 9.6 12 Sudeste 22 Este 0 -- -- 43
2020-01-09 12:00:00 8.1 12 Este 17 Este 0 -- -- 48
2020-01-09 11:00:00 7.5 8 Sudeste 12 Sudeste 0 -- -- 50
2020-01-09 10:00:00 7.2 4 Sudeste 10 Sudoeste 0 -- -- 54
2020-01-09 09:00:00 4.4 3 Sudoeste 10 Sudoeste 0 -- -- 51
2020-01-09 08:00:00 3.7 3 Sudeste 6 Sudeste 0 -- -- 60
2020-01-09 07:00:00 3.7 2 Noroeste 10 Sudeste 0 -- -- 62
2020-01-09 06:00:00 3.4 5 Sur 16 Sur 0 -- -- 65
2020-01-09 05:00:00 3.8 8 Sur 15 Sudeste 0 -- -- 64
2020-01-09 04:00:00 4.5 9 Sur 17 Sur 0 -- -- 55
2020-01-09 03:00:00 4.3 12 Sur 21 Sur 0 -- -- 64
2020-01-09 02:00:00 4.1 11 Sur 17 Sur 0 -- -- 68
2020-01-09 01:00:00 2.3 0 Calma 4 Sudeste 0 -- -- 90
2020-01-09 00:00:00 2.7 0 Calma 9 Sur 0 -- -- 86
2020-01-08 23:00:00 2.8 0 Calma 5 Oeste 0 -- -- 85
2020-01-08 22:00:00 3 4 Sudeste 5 Sudeste 0 -- -- 83
2020-01-08 21:00:00 3.3 3 Noroeste 7 Sur 0 -- -- 83
2020-01-08 20:00:00 3.9 4 Sur 14 Sudeste 0 -- -- 80
2020-01-08 19:00:00 4.8 0 Calma 12 Sudeste 0 -- -- 77
2020-01-08 18:00:00 5.6 9 Sur 13 Sudeste 0 -- -- 75
2020-01-08 17:00:00 7.3 9 Sudeste 12 Sudeste 0 -- -- 70
2020-01-08 16:00:00 9.4 9 Sudeste 15 Sudeste 0 -- -- 61
2020-01-08 15:00:00 10.6 5 Sudeste 14 Este 0 -- -- 59
2020-01-08 14:00:00 9.6 4 Norte 12 Norte 0 -- -- 59
2020-01-08 13:00:00 9.2 8 Norte 16 Nordeste 0 -- -- 60
2020-01-08 12:00:00 8.1 4 Norte 17 Noroeste 0 -- -- 58
2020-01-08 11:00:00 7.1 5 Norte 13 Noroeste 0 -- -- 64
2020-01-08 10:00:00 5.4 8 Oeste 14 Oeste 0 -- -- 65
2020-01-08 09:00:00 4.2 6 Oeste 11 Noroeste 0 -- -- 77
2020-01-08 08:00:00 6.4 13 Oeste 26 Oeste 0 -- -- 72
2020-01-08 07:00:00 5.7 18 Oeste 23 Oeste 0 -- -- 75
2020-01-08 06:00:00 6 14 Noroeste 24 Noroeste 0 -- -- 67
2020-01-08 05:00:00 6.2 15 Oeste 26 Oeste 0 -- -- 60
2020-01-08 04:00:00 6.6 14 Oeste 28 Oeste 0 -- -- 52
2020-01-08 03:00:00 7.3 20 Oeste 33 Noroeste 0 -- -- 43
2020-01-08 02:00:00 6.8 21 Noroeste 35 Noroeste 0 -- -- 49
2020-01-08 01:00:00 6.9 18 Oeste 26 Oeste 0 -- -- 37
2020-01-08 00:00:00 6.8 15 Oeste 22 Oeste 0 -- -- 33
2020-01-07 23:00:00 7.6 18 Oeste 28 Noroeste 0 -- -- 29
2020-01-07 22:00:00 8.1 16 Oeste 26 Oeste 0 -- -- 29
2020-01-07 21:00:00 6.9 16 Oeste 21 Oeste 0 -- -- 33
2020-01-07 20:00:00 7.5 13 Oeste 21 Oeste 0 -- -- 33
2020-01-07 19:00:00 8 12 Oeste 17 Oeste 0 -- -- 29
2020-01-07 18:00:00 9.1 9 Oeste 15 Oeste 0 -- -- 25
2020-01-07 17:00:00 10.3 11 Oeste 24 Noroeste 0 -- -- 27
2020-01-07 16:00:00 12.4 16 Noroeste 30 Noroeste 0 -- -- 23
2020-01-07 15:00:00 13.1 19 Noroeste 28 Norte 0 -- -- 24
2020-01-07 14:00:00 12.7 14 Noroeste 26 Noroeste 0 -- -- 24
2020-01-07 13:00:00 11.7 19 Noroeste 26 Noroeste 0 -- -- 25
2020-01-07 12:00:00 10.6 17 Noroeste 26 Noroeste 0 -- -- 25
2020-01-07 11:00:00 9.8 15 Noroeste 21 Noroeste 0 -- -- 30
2020-01-07 10:00:00 9.5 15 Oeste 23 Oeste 0 -- -- 28
2020-01-07 09:00:00 8 16 Oeste 24 Oeste 0 -- -- 29
2020-01-07 08:00:00 7.3 17 Oeste 24 Noroeste 0 -- -- 32
2020-01-07 07:00:00 6.4 16 Oeste 26 Oeste 0 -- -- 33
2020-01-07 06:00:00 6.5 15 Oeste 23 Oeste 0 -- -- 35
2020-01-07 05:00:00 5.7 16 Oeste 27 Oeste 0 -- -- 41
2020-01-07 04:00:00 4.6 14 Oeste 19 Oeste 0 -- -- 43
2020-01-07 03:00:00 5.8 15 Oeste 22 Oeste 0 -- -- 38
2020-01-07 02:00:00 6.2 15 Oeste 23 Noroeste 0 -- -- 39
2020-01-07 01:00:00 5.5 17 Oeste 24 Oeste 0 -- -- 47
2020-01-07 00:00:00 4.8 14 Oeste 21 Oeste 0 -- -- 47
2020-01-06 23:00:00 5.3 12 Oeste 20 Noroeste 0 -- -- 46
2020-01-06 22:00:00 6.3 12 Noroeste 23 Oeste 0 -- -- 41
2020-01-06 21:00:00 7.9 14 Oeste 19 Oeste 0 -- -- 34
2020-01-06 20:00:00 7.6 12 Oeste 14 Oeste 0 -- -- 37
2020-01-06 19:00:00 7.8 5 Oeste 10 Sudoeste 0 -- -- 39
2020-01-06 18:00:00 7.6 3 Sudoeste 4 Oeste 0 -- -- 39
2020-01-06 17:00:00 9.1 3 Nordeste 9 Sudeste 0 -- -- 37
2020-01-06 16:00:00 12.2 8 Sudeste 14 Sudeste 0 -- -- 32
2020-01-06 15:00:00 13.5 8 Sudeste 14 Sudeste 0 -- -- 31
2020-01-06 14:00:00 13.7 7 Sudeste 12 Este 0 -- -- 30
2020-01-06 13:00:00 13 6 Sudeste 11 Sudeste 0 -- -- 31
2020-01-06 12:00:00 13.2 5 Este 8 Este 0 -- -- 31
2020-01-06 11:00:00 11.8 2 Norte 7 Noroeste 0 -- -- 29
2020-01-06 10:00:00 9.9 0 Calma 5 Sudeste 0 -- -- 30